Terminal Aerodrome Forecast
Issued by NWS Brownsville, TX

Home | Current Version | Previous Version | Text Only | Print | Product List | Glossary On
Versions: 1 2 3 4 5 6 7 8 9 10 11 12 13 14 15 16 17 18 19 20 21 22 23 24
000
FTUS44 KBRO 272104 AAA
TAFMFE
TAF AMD
KMFE 272104Z 2721/2818 02010KT P6SM BKN035 OVC050
      TEMPO 2722/2724 6SM -DZ OVC025
     FM280000 35009KT 5SM BR OVC015
     FM280300 33009KT 4SM BR OVC012
     FM280600 30007KT 5SM BR OVC015
     FM281500 28012KT 5SM HZ OVC015=

USA.gov is the U.S. government's official web portal to all federal, state and local government web resources and services.